Terminal Aerodrome Forecast
Issued by NWS Spokane, WA

Home | Current Version | Previous Version | Text Only | Print | Product List | Glossary On
Versions: 1 2 3 4 5 6 7 8 9 10 11 12 13
000
FTUS46 KOTX 291739
TAFLWS
TAF
KLWS 291739Z 2918/3018 VRB04KT P6SM -RA FEW020 OVC040
     FM300100 17004KT P6SM VCSH OVC050
     FM301000 VRB02KT P6SM OVC030=

USA.gov is the U.S. government's official web portal to all federal, state and local government web resources and services.